Time;durP1;ratioP1;P1;durP2;ratioP2;P2;SDS_P1;SDS_P2;PMS_P1;PMS_P2;Temp;Humidity;BMP_temperature;BMP_pressure;BME280_temperature;BME280_humidity;BME280_pressure;Samples;Min_cycle;Max_cycle;Signal;HPM_P1;HPM_P2
2022/09/06 04:10:02;;;;;;;1.55;1.13;;;;;;;8.71;100.00;102502.56;6185253;23;20009;-85
2022/09/06 06:17:59;;;;;;;3.20;1.02;;;;;;;13.83;100.00;102643.09;6182399;22;20083;31
2022/09/06 06:26:33;;;;;;;5.10;1.17;;;;;;;13.70;100.00;102554.38;6169789;23;20025;-85
2022/09/06 06:31:36;;;;;;;5.43;1.13;;;;;;;12.91;100.00;102394.91;6172783;23;20021;-86
2022/09/06 06:34:03;;;;;;;6.15;1.10;;;;;;;13.69;100.00;102482.38;6186800;23;20001;-85
2022/09/06 06:36:32;;;;;;;8.40;1.25;;;;;;;13.24;99.15;102383.94;6187514;23;19997;-85
2022/09/06 06:46:43;;;;;;;4.82;1.50;;;;;;;14.30;95.97;102463.44;6186378;23;20029;-86
2022/09/06 07:15:01;;;;;;;5.68;1.10;;;;;;;15.17;86.00;102382.38;6194376;22;20104;-87
2022/09/06 07:17:28;;;;;;;12.23;1.27;;;;;;;15.31;85.28;102380.66;6162631;23;19997;-85
2022/09/06 07:19:53;;;;;;;11.30;1.17;;;;;;;16.50;84.67;102549.34;6186371;22;20012;-86
2022/09/06 07:30:05;;;;;;;5.28;1.17;;;;;;;16.02;82.31;102472.19;6181144;22;20011;-85
2022/09/06 07:32:33;;;;;;;4.93;1.00;;;;;;;15.59;81.42;102380.72;6216877;23;20004;-85
2022/09/06 07:34:59;;;;;;;7.38;1.17;;;;;;;16.37;80.99;102495.72;6218418;23;19999;-85
2022/09/06 07:37:24;;;;;;;6.53;1.15;;;;;;;16.20;80.71;102440.84;6218913;23;19992;-85
2022/09/06 07:39:50;;;;;;;6.43;1.50;;;;;;;16.34;80.37;102449.91;6245276;23;20028;-86
2022/09/06 07:44:50;;;;;;;3.65;0.85;;;;;;;16.75;78.39;102492.66;6188877;22;20021;-85
2022/09/06 07:47:16;;;;;;;4.95;1.00;;;;;;;16.31;78.02;102404.13;6214546;22;19989;-85
2022/09/06 07:49:42;;;;;;;3.20;0.90;;;;;;;17.86;77.46;102634.19;6165328;22;20036;-86
2022/09/06 07:52:07;;;;;;;2.25;0.90;;;;;;;16.68;77.57;102416.47;6214249;22;20040;-85
2022/09/06 07:54:33;;;;;;;5.32;1.27;;;;;;;18.09;76.80;102620.22;6189524;23;19989;-86
2022/09/06 08:28:00;;;;;;;2.08;1.10;;;;;;;17.68;71.11;102471.34;6175032;22;20027;-85
2022/09/06 08:30:28;;;;;;;2.65;1.10;;;;;;;17.25;70.64;102383.72;6214481;22;20001;-85
2022/09/06 09:24:05;;;;;;;0.65;0.50;;;;;;;17.44;65.79;102331.22;6183850;23;20021;-85
2022/09/06 09:26:49;;;;;;;1.38;0.45;;;;;;;17.72;65.88;102395.56;6157961;23;20029;-86
2022/09/06 09:29:16;;;;;;;5.25;0.60;;;;;;;17.24;66.26;102333.06;6144511;23;20912;-79
2022/09/06 09:31:51;;;;;;;1.58;0.55;;;;;;;16.86;66.35;102277.34;6188457;23;20043;-85
2022/09/06 09:49:41;;;;;;;4.05;0.68;;;;;;;18.45;59.95;102333.69;6154226;23;20090;-86
2022/09/06 09:52:13;;;;;;;1.45;0.50;;;;;;;19.67;59.72;102513.97;6128823;23;20051;-85
2022/09/06 09:54:46;;;;;;;0.95;0.50;;;;;;;18.85;58.61;102370.91;6128712;23;20014;-85
2022/09/06 09:57:18;;;;;;;2.63;0.75;;;;;;;18.52;58.11;102281.88;6128823;23;20009;-85
2022/09/06 10:00:00;;;;;;;3.00;0.57;;;;;;;18.71;57.83;102283.69;6128326;23;20391;-85
2022/09/06 10:02:39;;;;;;;1.10;0.40;;;;;;;20.28;57.77;102498.81;6127338;23;20006;-85
2022/09/06 10:05:16;;;;;;;1.42;0.63;;;;;;;20.41;56.58;102496.81;6154214;23;19998;-86
2022/09/06 10:07:48;;;;;;;2.33;0.40;;;;;;;19.66;54.96;102376.53;6154383;23;20013;-86
2022/09/06 10:10:20;;;;;;;3.70;0.50;;;;;;;19.43;53.98;102336.13;6128087;23;19998;-83
2022/09/06 10:12:46;;;;;;;0.80;0.40;;;;;;;19.30;54.15;102322.59;6128228;23;20090;-85
2022/09/06 10:15:32;;;;;;;1.05;0.50;;;;;;;19.32;53.21;102292.34;6155714;23;20016;-78
2022/09/06 10:17:57;;;;;;;0.60;0.50;;;;;;;19.64;53.52;102337.72;6157301;23;20028;-85
2022/09/06 10:20:41;;;;;;;0.90;0.50;;;;;;;19.33;51.62;102283.09;6157427;23;20017;-85
2022/09/06 10:23:35;;;;;;;3.42;0.52;;;;;;;20.00;49.77;102341.63;6157980;23;20033;-85
2022/09/06 10:36:32;;;;;;;0.82;0.30;;;;;;;19.75;49.94;102280.69;6199120;22;20027;-85
2022/09/06 10:39:02;;;;;;;1.35;0.60;;;;;;;21.16;49.36;102484.94;6186829;22;20009;-86
2022/09/06 10:41:51;;;;;;;2.08;0.50;;;;;;;21.01;46.81;102477.09;6187288;23;20073;-85
2022/09/06 10:44:35;;;;;;;1.05;0.40;;;;;;;20.55;48.14;102474.84;6212937;22;20004;-85
2022/09/06 10:47:20;;;;;;;;;;;;;;;20.66;49.43;102479.56;6187311;23;20005;-84
2022/09/06 10:49:54;;;;;;;1.48;0.50;;;;;;;19.24;47.84;102263.44;6212477;23;19960;-85
2022/09/06 10:52:28;;;;;;;0.50;0.47;;;;;;;19.13;48.85;102243.16;6187370;23;19996;-85
2022/09/06 10:55:02;;;;;;;1.45;0.40;;;;;;;20.28;48.39;102435.94;6186923;23;20013;-85
2022/09/06 10:57:39;;;;;;;;;;;;;;;20.56;48.03;102468.31;6187621;23;19995;-85
2022/09/06 11:00:12;;;;;;;1.40;0.40;;;;;;;19.69;49.24;102347.97;6212224;22;19946;-86
2022/09/06 11:02:46;;;;;;;2.15;0.43;;;;;;;19.33;48.91;102281.22;6187098;23;20001;-85
2022/09/06 11:05:21;;;;;;;;;;;;;;;20.24;48.41;102465.63;6187188;23;20396;-85
2022/09/06 11:07:55;;;;;;;0.65;0.40;;;;;;;19.05;49.43;102302.63;6186784;23;19912;-85
2022/09/06 11:10:29;;;;;;;1.40;0.40;;;;;;;18.88;47.83;102250.47;6187028;22;20013;-85
2022/09/06 11:13:02;;;;;;;1.42;0.60;;;;;;;19.15;45.50;102253.84;6186611;23;20036;-84
2022/09/06 11:15:36;;;;;;;0.68;0.47;;;;;;;19.22;45.41;102228.19;6186932;23;20003;-85
2022/09/06 11:18:14;;;;;;;0.70;0.50;;;;;;;19.89;45.58;102313.09;6212265;22;20000;-85
2022/09/06 11:20:58;;;;;;;0.75;0.40;;;;;;;20.85;45.18;102461.28;6212488;22;20025;-85
2022/09/06 11:23:49;;;;;;;0.65;0.43;;;;;;;21.06;44.27;102444.41;6186145;23;20009;-84
2022/09/06 11:26:29;;;;;;;0.50;0.40;;;;;;;20.63;43.57;102368.75;6212316;22;20009;-85
2022/09/06 11:29:07;;;;;;;1.98;0.55;;;;;;;20.90;42.50;102446.94;6186877;23;20029;-85
2022/09/06 11:31:48;;;;;;;2.17;0.68;;;;;;;19.58;42.89;102253.94;6212790;22;20107;-85
2022/09/06 11:34:24;;;;;;;2.15;0.50;;;;;;;20.99;42.71;102440.06;6186540;23;20035;-85
2022/09/06 11:37:23;;;;;;;0.90;0.40;;;;;;;20.81;41.73;102439.00;6212233;22;20013;-85
2022/09/06 12:14:47;;;;;;;0.85;0.40;;;;;;;20.17;41.51;102279.84;6241987;22;20004;-85
2022/09/06 12:17:13;;;;;;;0.73;0.47;;;;;;;20.38;40.95;102346.06;6218655;23;20004;-84
2022/09/06 12:19:53;;;;;;;2.28;0.50;;;;;;;19.78;40.89;102239.28;6217746;23;20001;-85
2022/09/06 12:22:36;;;;;;;0.90;0.40;;;;;;;20.94;40.70;102382.47;6218230;23;20027;-84
2022/09/06 12:25:33;;;;;;;1.55;0.40;;;;;;;21.03;40.52;102390.13;6242954;23;20015;-85
2022/09/06 12:28:04;;;;;;;1.20;0.50;;;;;;;19.86;40.68;102258.09;6214785;23;20000;-85
2022/09/06 12:30:42;;;;;;;0.65;0.50;;;;;;;20.37;41.83;102382.66;6215402;23;20012;-84
2022/09/06 12:33:23;;;;;;;0.63;0.57;;;;;;;20.28;42.63;102379.38;6217935;23;20052;-83
2022/09/06 12:35:50;;;;;;;0.85;0.40;;;;;;;18.66;42.72;102143.59;6214761;23;20012;-83
2022/09/06 12:38:20;;;;;;;2.15;0.30;;;;;;;18.59;43.17;102157.28;6215732;23;20036;-84
2022/09/06 12:40:50;;;;;;;1.15;0.40;;;;;;;18.60;43.07;102167.13;6218003;23;20019;-85
2022/09/06 12:43:16;;;;;;;1.48;0.73;;;;;;;18.54;43.74;102184.34;6218594;23;20024;-85
2022/09/06 12:45:49;;;;;;;0.60;0.40;;;;;;;19.31;44.16;102297.00;6217976;23;19992;-85
2022/09/06 12:48:29;;;;;;;1.15;0.60;;;;;;;18.65;51.91;102237.38;6218707;23;20011;-84
2022/09/06 12:51:15;;;;;;;0.70;0.43;;;;;;;17.85;54.38;102153.25;6218152;23;20016;-84
2022/09/06 12:53:50;;;;;;;1.23;0.60;;;;;;;17.92;55.47;102159.50;6244020;23;20000;-85
2022/09/06 12:56:19;;;;;;;2.08;0.60;;;;;;;17.89;55.56;102149.03;6242973;23;20016;-84
2022/09/06 12:58:45;;;;;;;1.38;0.70;;;;;;;18.97;56.87;102361.84;6217773;23;19997;-85
2022/09/06 13:01:22;;;;;;;1.08;0.63;;;;;;;18.84;57.39;102353.72;6217932;23;19999;-85
2022/09/06 13:03:56;;;;;;;1.40;0.70;;;;;;;17.84;57.57;102185.06;6217954;23;20017;-84
2022/09/06 13:06:25;;;;;;;1.15;0.60;;;;;;;17.40;57.72;102122.34;6217896;23;20067;-84
2022/09/06 13:08:54;;;;;;;0.90;0.60;;;;;;;17.50;58.68;102128.19;6218533;23;19992;-85
2022/09/06 13:11:28;;;;;;;1.95;0.80;;;;;;;18.34;57.54;102195.34;6243612;23;20020;-85
2022/09/06 13:13:54;;;;;;;1.70;0.85;;;;;;;18.90;57.54;102248.34;6210975;23;20004;-83
2022/09/06 13:19:10;;;;;;;2.92;0.90;;;;;;;18.93;58.54;102259.66;6193911;22;20007;-84
2022/09/06 13:21:40;;;;;;;1.85;0.90;;;;;;;18.23;58.96;102161.44;6213104;22;20012;-84
2022/09/06 13:24:20;;;;;;;2.30;0.90;;;;;;;19.23;59.67;102340.91;6188043;23;19993;-84
2022/09/06 13:26:45;;;;;;;1.48;0.80;;;;;;;18.64;60.46;102258.34;6187628;23;20013;-84
2022/09/06 13:29:27;;;;;;;1.52;0.90;;;;;;;17.63;60.39;102092.75;6187937;23;20069;-85
2022/09/06 13:31:55;;;;;;;1.83;0.90;;;;;;;17.83;61.67;102158.06;6212752;22;20004;-85
2022/09/06 13:34:30;;;;;;;1.27;0.70;;;;;;;17.54;63.06;102105.75;6212378;23;19992;-84
2022/09/06 13:37:02;;;;;;;1.25;0.70;;;;;;;17.41;61.04;102110.41;6187418;23;20005;-85
2022/09/06 13:39:30;;;;;;;1.40;0.90;;;;;;;17.58;62.96;102133.38;6213218;22;20010;-84
2022/09/06 13:42:25;;;;;;;1.23;0.80;;;;;;;17.44;63.81;102118.13;6186529;23;19989;-84
2022/09/06 13:44:55;;;;;;;1.00;0.80;;;;;;;18.59;64.80;102337.19;6210369;22;20087;-83
2022/09/06 13:49:54;;;;;;;1.33;0.70;;;;;;;17.53;66.30;102206.69;6182796;23;20057;-84
2022/09/06 13:52:22;;;;;;;1.40;0.70;;;;;;;17.70;66.78;102240.56;6183370;23;19994;-84
2022/09/06 13:59:58;;;;;;;1.25;0.80;;;;;;;17.33;68.32;102184.94;6201823;23;20021;-85
2022/09/06 14:02:24;;;;;;;1.45;0.60;;;;;;;17.07;68.20;102125.94;6208450;22;20036;-85
2022/09/06 14:04:49;;;;;;;2.00;0.73;;;;;;;17.93;67.65;102234.69;6213128;22;20068;-85
2022/09/06 14:07:16;;;;;;;0.60;0.50;;;;;;;17.27;63.41;102080.50;6152000;22;20016;-79
2022/09/06 14:09:41;;;;;;;1.35;0.60;;;;;;;18.27;62.29;102240.88;6242532;23;20015;-85
2022/09/06 14:12:07;;;;;;;0.70;0.50;;;;;;;17.96;61.59;102189.84;6216893;23;20001;-84
2022/09/06 14:14:33;;;;;;;1.02;0.60;;;;;;;18.78;61.25;102303.59;6243077;23;20014;-84
2022/09/06 14:16:59;;;;;;;1.35;0.68;;;;;;;17.76;61.02;102130.00;6242573;23;19996;-84
2022/09/06 14:19:25;;;;;;;0.70;0.50;;;;;;;18.91;60.88;102301.88;6242946;23;19992;-85
2022/09/06 14:21:51;;;;;;;0.52;0.50;;;;;;;19.04;59.82;102309.97;6242678;23;20000;-84
2022/09/06 14:24:16;;;;;;;1.83;0.50;;;;;;;18.42;59.27;102213.38;6216486;23;20024;-85
2022/09/06 14:26:42;;;;;;;0.85;0.55;;;;;;;17.89;59.55;102113.63;6242989;23;20000;-85
2022/09/06 14:29:08;;;;;;;1.63;0.60;;;;;;;18.11;61.25;102149.56;6198848;23;20020;-81
2022/09/06 14:34:08;;;;;;;1.58;0.60;;;;;;;18.96;61.54;102291.13;6194424;22;20126;-82
2022/09/06 14:44:19;;;;;;;1.65;0.43;;;;;;;17.83;58.25;102060.88;6211830;22;20093;-85
2022/09/06 14:49:20;;;;;;;0.50;0.40;;;;;;;18.15;56.88;102060.09;6194982;22;20008;-85
2022/09/06 14:51:46;;;;;;;1.05;0.50;;;;;;;18.52;57.05;102088.34;6242330;23;20023;-84
2022/09/06 14:54:13;;;;;;;0.60;0.40;;;;;;;18.84;56.13;102143.72;6216504;23;20012;-85
2022/09/06 14:56:40;;;;;;;0.55;0.50;;;;;;;18.55;55.87;102106.97;6216378;23;20031;-83
2022/09/06 14:59:09;;;;;;;1.10;0.40;;;;;;;18.63;56.62;102152.22;6216496;23;20003;-85
2022/09/06 15:01:36;;;;;;;2.22;0.50;;;;;;;18.87;56.71;102194.25;6217194;23;20048;-85
2022/09/06 15:04:03;;;;;;;0.70;0.50;;;;;;;17.89;57.48;102056.44;6216006;23;20044;-81
2022/09/06 15:06:31;;;;;;;0.50;0.50;;;;;;;18.17;58.07;102107.81;6241417;23;20054;-84
2022/09/06 15:08:57;;;;;;;0.70;0.47;;;;;;;17.76;57.16;102042.88;6240883;23;20020;-83
2022/09/06 15:11:43;;;;;;;0.50;0.40;;;;;;;19.15;56.68;102268.34;6242381;23;20009;-83
2022/09/06 15:14:15;;;;;;;0.60;0.40;;;;;;;17.70;56.92;102032.84;6215130;23;19989;-84
2022/09/06 15:16:41;;;;;;;0.75;0.40;;;;;;;18.61;56.69;102177.00;6241310;23;20031;-83
2022/09/06 15:19:08;;;;;;;2.13;0.50;;;;;;;18.50;55.82;102121.25;6240095;23;19993;-83
2022/09/06 15:21:34;;;;;;;2.40;0.40;;;;;;;18.98;55.43;102185.34;6240245;23;20005;-82
2022/09/06 15:24:01;;;;;;;1.92;0.57;;;;;;;18.73;54.62;102115.25;6212809;23;20019;-83
2022/09/06 15:26:27;;;;;;;1.30;0.50;;;;;;;18.45;54.55;102080.22;6215278;23;19993;-85
2022/09/06 15:34:01;;;;;;;0.52;0.43;;;;;;;18.56;55.54;102130.44;6202457;23;20055;-82
2022/09/06 15:36:28;;;;;;;0.95;0.50;;;;;;;18.67;55.02;102109.81;6184465;23;19993;-83
2022/09/06 15:38:58;;;;;;;1.02;0.57;;;;;;;18.64;54.85;102107.53;6182274;22;20028;-83
2022/09/06 15:41:25;;;;;;;1.25;0.50;;;;;;;18.31;55.39;102090.38;6184704;23;20005;-83
2022/09/06 15:51:39;;;;;;;2.30;0.40;;;;;;;17.52;57.26;102018.06;6169663;22;20028;-84
2022/09/06 15:56:40;;;;;;;2.83;0.40;;;;;;;17.57;56.76;102007.34;6177062;22;20028;-85
2022/09/06 18:03:14;;;;;;;2.17;0.60;;;;;;;15.89;72.93;102196.03;6204045;22;20082;-85
2022/09/06 18:59:52;;;;;;;0.57;0.57;;;;;;;12.66;84.81;101982.81;6150722;23;20025;-83
2022/09/06 19:02:19;;;;;;;1.10;0.60;;;;;;;12.55;85.10;101975.16;6127826;23;19990;-85
2022/09/06 19:12:40;;;;;;;0.55;0.50;;;;;;;13.44;86.88;102167.16;6132750;23;20283;-82
2022/09/06 19:15:06;;;;;;;0.70;0.45;;;;;;;12.01;87.30;101943.75;6186405;23;20077;-83
2022/09/06 19:17:32;;;;;;;1.25;0.40;;;;;;;12.28;87.91;102006.25;6212335;23;19995;-81
2022/09/06 19:20:01;;;;;;;0.60;0.50;;;;;;;11.97;87.94;101964.00;6186046;23;20032;-83
2022/09/06 20:01:16;;;;;;;0.40;0.40;;;;;;;12.51;95.37;102144.75;6159657;22;20042;-79
2022/09/06 20:11:29;;;;;;;1.13;0.75;;;;;;;11.80;96.74;102044.16;6208638;22;20090;-84
2022/09/06 20:13:55;;;;;;;1.27;0.57;;;;;;;11.17;97.23;101959.72;6214806;22;20005;-85
2022/09/06 21:46:20;;;;;;;1.15;0.70;;;;;;;9.12;100.00;101842.53;6174548;22;20091;-85
2022/09/06 22:01:41;;;;;;;1.30;0.63;;;;;;;9.83;100.00;101960.22;6178297;22;20016;-85
2022/09/06 22:28:39;;;;;;;2.05;0.63;;;;;;;10.51;100.00;102111.63;6152266;23;20027;31
